Latest Weather Observations for Croker Island Airport

IDD60801

Issued at 7:21 am CST Monday 27 May 2024 (issued every 10 minutes, with the page automatically refreshed every 10 minutes)

About weather observations | Map of weather stations | Latest weather observations for NT | Other Formats
Station Details ID: 014308 Name: CROKER ISLAND AIRPORT Lat: -11.16 Lon: 132.48 Height: 9.2 m
Data from the previous 72 hours. | See also: Recent months at Croker Island Airport
Date/Time
CST
Temp
°C
App
Temp
°C
Dew
Point
°C
Rel
Hum
%
Delta-T
°C
Wind Press
QNH
hPa
Press
MSL
hPa
Rain since
9am
mm
Dir  Spd
km/h
Gust
km/h
Spd
kts
Gust
kts
27/07:00am 24.4 28.3 22.5 89 1.3 SE 6 7 3 4 1012.4 1012.3 0.0
27/06:30am 24.6 28.7 22.3 87 1.5 SE 4 6 2 3 1012.0 1011.9 0.0
27/06:00am 25.0 28.6 22.3 85 1.8 SE 7 9 4 5 1012.0 1011.9 0.0
27/05:30am 25.3 28.9 22.4 84 1.9 SE 7 9 4 5 1011.6 1011.5 0.0
27/05:00am 25.7 29.3 22.4 82 2.2 SE 7 11 4 6 1011.5 1011.4 0.0
27/04:30am 26.0 29.9 22.5 81 2.4 SE 6 9 3 5 1011.3 1011.2 0.0
27/04:00am 26.5 30.1 22.3 78 2.8 ESE 7 13 4 7 1011.3 1011.2 0.0
27/03:30am 26.7 29.6 22.5 78 2.8 SE 11 19 6 10 1011.2 1011.1 0.0
27/03:00am 27.0 30.1 22.8 78 2.8 SE 11 26 6 14 1011.3 1011.2 0.0
27/02:30am 27.0 29.7 22.8 78 2.8 ESE 13 20 7 11 1011.5 1011.4 0.0
27/02:00am 27.1 29.9 23.6 81 2.4 ESE 15 24 8 13 1011.6 1011.5 0.0
27/01:30am 26.8 30.7 24.3 86 1.7 ESE 11 19 6 10 1011.7 1011.6 0.0
27/01:00am 26.6 31.2 24.8 90 1.3 ESE 9 15 5 8 1012.0 1011.9 0.0
27/12:30am 26.7 31.3 24.7 89 1.4 ESE 9 15 5 8 1012.3 1012.2 0.0
27/12:00am 26.8 31.8 24.8 89 1.4 E 7 13 4 7 1012.5 1012.4 0.0
 
Date/Time
CST
Temp
°C
App
Temp
°C
Dew
Point
°C
Rel
Hum
%
Delta-T
°C
Wind Press
QNH
hPa
Press
MSL
hPa
Rain since
9am
mm
Dir  Spd
km/h
Gust
km/h
Spd
kts
Gust
kts
26/11:30pm 27.0 31.6 24.8 88 1.5 E 9 13 5 7 1012.6 1012.5 0.0
26/11:00pm 27.0 31.8 24.5 86 1.7 E 7 11 4 6 1012.8 1012.7 0.0
26/10:30pm 27.1 31.7 24.2 84 2.0 E 7 9 4 5 1013.0 1012.9 0.0
26/10:00pm 27.1 32.0 24.6 86 1.7 ESE 7 9 4 5 1013.1 1013.0 0.0
26/09:30pm 27.2 32.1 24.7 86 1.7 E 7 13 4 7 1013.2 1013.1 0.0
26/09:00pm 27.2 31.6 24.5 85 1.9 E 9 13 5 7 1013.1 1013.0 0.0
26/08:30pm 27.0 31.8 24.5 86 1.7 E 7 9 4 5 1012.7 1012.6 0.0
26/08:00pm 27.2 32.0 24.1 83 2.1 E 6 9 3 5 1012.6 1012.5 0.0
26/07:30pm 27.4 31.7 23.6 80 2.6 ENE 7 11 4 6 1012.3 1012.2 0.0
26/07:00pm 27.5 31.6 23.9 81 2.5 ENE 9 13 5 7 1012.0 1011.9 0.0
26/06:30pm 27.6 31.6 23.8 80 2.6 E 9 15 5 8 1011.8 1011.7 0.0
26/06:00pm 27.8 31.3 23.6 78 2.9 E 11 22 6 12 1011.5 1011.4 0.0
26/05:30pm 28.1 32.1 23.7 77 3.0 E 9 17 5 9 1011.4 1011.3 0.0
26/05:00pm 28.4 31.9 23.5 75 3.4 E 11 19 6 10 1011.3 1011.2 0.0
26/04:30pm 29.5 32.4 23.9 72 3.9 E 15 26 8 14 1011.1 1011.0 0.0
26/04:00pm 30.8 34.0 23.7 66 4.9 E 13 24 7 13 1011.1 1011.0 0.0
26/03:30pm 30.9 33.2 23.5 64 5.1 E 17 26 9 14 1011.3 1011.2 0.0
26/03:00pm 31.3 32.2 22.6 60 6.0 E 22 32 12 17 1011.3 1011.2 0.0
26/02:30pm 31.6 32.3 22.3 57 6.3 E 22 33 12 18 1011.5 1011.4 0.0
26/02:00pm 31.9 33.2 22.3 56 6.5 ESE 19 28 10 15 1011.7 1011.6 0.0
26/01:30pm 32.4 33.4 22.2 55 7.0 E 20 32 11 17 1012.1 1012.0 0.0
26/01:00pm 31.9 32.9 21.7 54 6.9 ESE 19 28 10 15 1012.5 1012.4 0.0
26/12:30pm 31.5 32.3 21.7 56 6.6 E 20 32 11 17 1012.9 1012.8 0.0
26/12:00pm 30.2 30.8 21.0 58 6.1 ESE 19 30 10 16 1013.1 1013.0 0.0
26/11:30am 30.1 30.8 21.2 59 6.0 ESE 19 28 10 15 1013.5 1013.4 0.0
26/11:00am 30.5 31.1 21.0 57 6.3 ESE 19 30 10 16 1013.6 1013.5 0.0
26/10:30am 30.1 30.8 21.5 60 5.8 ESE 20 33 11 18 1013.7 1013.6 0.0
26/10:00am 29.9 30.8 21.6 61 5.6 ESE 19 28 10 15 1013.8 1013.7 0.0
26/09:30am 29.6 31.2 22.1 64 5.1 ESE 17 28 9 15 1014.2 1014.1 0.0
26/09:00am 28.7 30.7 22.9 71 4.0 ESE 17 28 9 15 1013.9 1013.8 0.0
26/08:30am 27.5 29.9 22.9 76 3.1 ESE 15 24 8 13 1013.8 1013.7 0.0
26/08:00am 26.2 29.2 22.7 81 2.4 ESE 11 17 6 9 1013.6 1013.5 0.0
26/07:30am 25.0 28.3 22.5 86 1.7 ESE 9 13 5 7 1013.4 1013.3 0.0
26/07:00am 24.7 27.8 22.2 86 1.7 SE 9 13 5 7 1013.2 1013.1 0.0
26/06:30am 25.0 28.7 22.5 86 1.7 SE 7 11 4 6 1013.0 1012.9 0.0
26/06:00am 25.6 28.5 22.5 83 2.1 ESE 11 20 6 11 1012.7 1012.6 0.0
26/05:30am 25.7 28.7 22.6 83 2.1 ESE 11 20 6 11 1012.5 1012.4 0.0
26/05:00am 25.9 28.6 22.8 83 2.1 ESE 13 24 7 13 1012.3 1012.2 0.0
26/04:30am 26.1 28.9 23.6 86 1.7 ESE 15 22 8 12 1012.1 1012.0 0.0
26/04:00am 26.1 30.2 24.0 88 1.4 ESE 9 17 5 9 1011.9 1011.8 0.0
26/03:30am 26.3 30.6 24.3 89 1.4 ESE 9 15 5 8 1011.9 1011.8 0.0
26/03:00am 26.5 30.1 24.3 88 1.5 E 13 19 7 10 1011.9 1011.8 0.0
26/02:30am 26.4 30.4 24.4 89 1.4 E 11 19 6 10 1012.1 1012.0 0.0
26/02:00am 26.4 30.5 24.6 90 1.2 E 11 19 6 10 1012.3 1012.2 0.0
26/01:30am 26.3 30.4 24.5 90 1.2 E 11 17 6 9 1012.2 1012.1 0.0
26/01:00am 25.9 30.8 24.7 93 0.8 E 7 11 4 6 1012.5 1012.4 0.0
26/12:30am 25.9 30.7 24.5 92 1.0 E 7 13 4 7 1012.6 1012.5 0.0
26/12:00am 25.8 30.7 24.6 93 0.8 E 7 11 4 6 1012.8 1012.7 0.0
 
Date/Time
CST
Temp
°C
App
Temp
°C
Dew
Point
°C
Rel
Hum
%
Delta-T
°C
Wind Press
QNH
hPa
Press
MSL
hPa
Rain since
9am
mm
Dir  Spd
km/h
Gust
km/h
Spd
kts
Gust
kts
25/11:30pm 25.8 30.8 24.8 94 0.7 E 7 11 4 6 1012.6 1012.5 0.0
25/11:00pm 25.6 30.5 24.6 94 0.7 E 7 9 4 5 1012.8 1012.7 0.0
25/10:30pm 25.7 30.7 24.5 93 0.8 ENE 6 7 3 4 1012.7 1012.6 0.0
25/10:00pm 25.8 30.6 24.2 91 1.1 E 6 9 3 5 1012.6 1012.5 0.0
25/09:30pm 25.9 30.5 24.1 90 1.2 ENE 7 11 4 6 1012.4 1012.3 0.0
25/09:00pm 25.8 30.5 24.0 90 1.2 ENE 6 9 3 5 1012.3 1012.2 0.0
25/08:30pm 25.6 30.1 24.0 91 1.1 ENE 7 9 4 5 1012.2 1012.1 0.0
25/08:00pm 25.9 30.6 23.9 89 1.4 ENE 6 7 3 4 1012.0 1011.9 0.0
25/07:30pm 26.2 30.9 23.9 87 1.6 ENE 6 7 3 4 1011.7 1011.6 0.0
25/07:00pm 26.5 31.1 24.2 87 1.6 ENE 7 11 4 6 1011.4 1011.3 0.0
25/06:30pm 26.9 31.0 24.0 84 2.0 E 9 15 5 8 1011.1 1011.0 0.0
25/06:00pm 27.7 31.4 23.9 80 2.6 E 11 20 6 11 1011.0 1010.9 0.0
25/05:30pm 28.4 31.4 24.0 77 3.0 E 15 24 8 13 1010.7 1010.6 0.0
25/05:00pm 29.2 32.0 23.6 72 3.9 E 15 28 8 15 1010.7 1010.6 0.0
25/04:30pm 30.2 33.3 24.1 70 4.2 E 15 28 8 15 1010.5 1010.4 0.0
25/04:00pm 30.5 33.4 23.9 68 4.6 E 15 28 8 15 1010.5 1010.4 0.0
25/03:30pm 30.6 32.1 23.0 64 5.2 E 20 35 11 19 1010.5 1010.4 0.0
25/03:00pm 30.5 32.7 23.9 68 4.6 E 19 26 10 14 1010.8 1010.7 0.0
25/02:30pm 31.2 34.0 24.3 66 4.8 E 17 28 9 15 1011.1 1011.0 0.0
25/02:00pm 31.3 33.9 23.9 64 5.1 ENE 17 28 9 15 1011.6 1011.5 0.0
25/01:30pm 31.2 33.7 23.8 64 5.1 E 17 28 9 15 1011.8 1011.7 0.0
25/01:00pm 30.5 32.5 23.9 68 4.6 ENE 20 37 11 20 1012.3 1012.2 0.0
25/12:30pm 30.8 32.9 23.7 66 4.9 E 19 30 10 16 1012.8 1012.7 0.0
25/12:00pm 30.8 32.9 23.7 66 4.9 E 19 28 10 15 1013.5 1013.4 0.0
25/11:30am 30.4 32.1 23.1 65 5.0 E 19 30 10 16 1013.9 1013.8 0.0
25/11:00am 29.6 30.4 21.8 63 5.3 ESE 20 32 11 17 1013.9 1013.8 0.0
25/10:30am 29.2 30.5 22.4 66 4.6 E 19 33 10 18 1014.0 1013.9 0.0
25/10:00am 29.0 30.6 23.2 71 4.0 E 20 33 11 18 1013.8 1013.7 0.0
25/09:30am 28.6 30.4 23.3 73 3.6 ESE 19 28 10 15 1013.7 1013.6 0.0
25/09:00am 28.1 30.8 23.5 76 3.2 E 15 22 8 12 1013.5 1013.4 0.0
25/08:30am 27.0 29.8 23.0 79 2.7 ESE 13 24 7 13 1013.4 1013.3 0.0
25/08:00am 26.3 29.7 23.4 84 2.0 ESE 11 20 6 11 1013.1 1013.0 0.0
25/07:30am 25.3 28.6 23.2 88 1.4 ESE 11 17 6 9 1013.0 1012.9 0.0
25/07:00am 25.0 27.7 22.9 88 1.4 ESE 13 20 7 11 1012.5 1012.4 0.0
25/06:30am 24.9 27.5 22.6 87 1.5 ESE 13 19 7 10 1012.3 1012.2 0.0
25/06:00am 25.1 28.1 22.6 86 1.7 ESE 11 17 6 9 1012.1 1012.0 0.0
25/05:30am 25.0 28.8 22.7 87 1.6 ESE 7 13 4 7 1012.0 1011.9 0.0
25/05:00am 25.5 28.6 22.8 85 1.8 ESE 11 22 6 12 1011.7 1011.6 0.0
25/04:30am 25.7 28.6 23.2 86 1.7 ESE 13 22 7 12 1011.7 1011.6 0.0
25/04:00am 26.1 28.9 23.6 86 1.7 ESE 15 26 8 14 1011.7 1011.6 0.0
25/03:30am 26.3 29.6 23.8 86 1.7 ESE 13 28 7 15 1011.8 1011.7 0.0
25/03:00am 26.6 29.7 24.1 86 1.7 ESE 15 22 8 12 1012.0 1011.9 0.0
25/02:30am 26.9 30.2 24.5 87 1.7 E 15 22 8 12 1012.1 1012.0 0.0
25/02:00am 26.5 30.8 24.9 91 1.1 E 11 19 6 10 1012.3 1012.2 0.0
25/01:30am 25.6 30.9 24.9 96 0.5 E 6 9 3 5 1012.4 1012.3 0.0
25/01:00am 25.3 30.4 24.6 96 0.5 E 6 9 3 5 1012.5 1012.4 0.0
25/12:30am 25.3 30.4 24.6 96 0.5 E 6 9 3 5 1012.7 1012.6 0.0
25/12:00am 25.2 30.5 24.3 95 0.6 E 4 6 2 3 1012.7 1012.6 0.0
 
Date/Time
CST
Temp
°C
App
Temp
°C
Dew
Point
°C
Rel
Hum
%
Delta-T
°C
Wind Press
QNH
hPa
Press
MSL
hPa
Rain since
9am
mm
Dir  Spd
km/h
Gust
km/h
Spd
kts
Gust
kts
24/11:30pm 25.3 30.6 24.3 94 0.7 E 4 6 2 3 1012.7 1012.6 0.0
24/11:00pm 25.7 30.7 24.5 93 0.8 E 6 7 3 4 1012.6 1012.5 0.0
24/10:30pm 25.8 30.7 24.4 92 1.0 E 6 7 3 4 1012.6 1012.5 0.0
24/10:00pm 26.0 30.9 24.4 91 1.1 ENE 6 9 3 5 1012.5 1012.4 0.0
24/09:30pm 26.3 31.1 24.2 88 1.4 E 6 9 3 5 1012.3 1012.2 0.0
24/09:00pm 26.5 31.0 24.0 86 1.7 E 7 11 4 6 1012.1 1012.0 0.0
24/08:30pm 26.5 30.5 23.8 85 1.9 ENE 9 15 5 8 1011.8 1011.7 0.0
24/08:00pm 26.4 31.1 23.9 86 1.7 E 6 13 3 7 1011.4 1011.3 0.0
24/07:30pm 26.6 30.9 23.7 84 2.0 E 7 13 4 7 1011.0 1010.9 0.0
24/07:00pm 26.9 30.2 23.2 80 2.5 E 11 19 6 10 1010.7 1010.6 0.0
24/06:30pm 27.2 30.0 23.0 78 2.9 E 13 24 7 13 1010.5 1010.4 0.0
24/06:00pm 27.7 30.6 23.1 76 3.1 E 13 22 7 12 1010.2 1010.1 0.0
24/05:30pm 28.1 30.6 23.2 74 3.4 E 15 24 8 13 1010.0 1009.9 0.0
24/05:00pm 28.5 31.2 23.4 74 3.5 ESE 15 24 8 13 1009.9 1009.8 0.0
24/04:30pm 28.8 30.0 23.2 71 3.8 ESE 22 33 12 18 1009.7 1009.6 0.0
24/04:00pm 29.6 31.7 23.8 71 4.0 ESE 19 33 10 18 1009.6 1009.5 0.0
24/03:30pm 29.5 31.0 23.7 71 4.0 ESE 22 41 12 22 1009.5 1009.4 0.0
24/03:00pm 30.6 32.2 23.8 67 4.7 ESE 22 39 12 21 1009.5 1009.4 0.0
24/02:30pm 29.4 30.5 23.6 71 4.0 ESE 24 39 13 21 1009.9 1009.8 0.0
24/02:00pm 29.6 31.4 23.5 69 4.2 ESE 20 32 11 17 1010.1 1010.0 0.0
24/01:30pm 30.1 31.9 23.5 67 4.6 ESE 20 35 11 19 1010.5 1010.4 0.0
24/01:00pm 29.8 30.7 23.3 68 4.5 ESE 24 41 13 22 1011.0 1010.9 0.0
24/12:30pm 30.6 32.6 24.0 68 4.6 E 20 35 11 19 1011.3 1011.2 0.0
24/12:00pm 29.8 31.8 24.0 71 4.0 ESE 20 35 11 19 1011.6 1011.5 0.0
24/11:30am 29.5 31.4 23.7 71 4.0 E 20 39 11 21 1012.2 1012.1 0.0
24/11:00am 29.3 31.1 23.3 70 4.1 ESE 19 30 10 16 1012.3 1012.2 0.0
24/10:30am 28.8 30.9 23.7 74 3.5 ESE 19 32 10 17 1012.3 1012.2 0.0
24/10:00am 28.0 29.6 22.9 74 3.5 E 19 32 10 17 1012.2 1012.1 0.0
24/09:30am 26.6 29.5 23.1 81 2.4 ESE 13 20 7 11 1012.4 1012.3 0.0
24/09:00am 26.1 28.8 22.8 82 2.2 SE 13 20 7 11 1012.1 1012.0 0.0
24/08:30am 25.6 28.5 22.5 83 2.1 SE 11 17 6 9 1011.8 1011.7 0.0
24/08:00am 25.2 28.1 22.5 85 1.8 SE 11 17 6 9 1011.5 1011.4 0.0
24/07:30am 24.6 28.3 22.5 88 1.4 SE 7 11 4 6 1011.4 1011.3 0.0

Other formats

Comma delimited format used in spreadsheet applications
http://www.bom.gov.au/fwo/IDD60801/IDD60801.94108.axf

JavaScript Object Notation format (JSON) in row-major order
http://www.bom.gov.au/fwo/IDD60801/IDD60801.94108.json

Data quality

Most of these data are generated automatically and are frequently updated. Quality checks on data are not normally performed. It is possible for incorrect values to appear. Refer to information at About Latest Weather Observations and please check the disclaimer before using these data.